Time;durP1;ratioP1;P1;durP2;ratioP2;P2;SDS_P1;SDS_P2;PMS_P1;PMS_P2;Temp;Humidity;BMP_temperature;BMP_pressure;BME280_temperature;BME280_humidity;BME280_pressure;Samples;Min_cycle;Max_cycle;Signal;HPM_P1;HPM_P2
2022/08/09 00:02:30;;;;;;;8.40;3.20;;;;;;;;;;4974865;28;20059;-77
2022/08/09 00:04:56;;;;;;;4.85;3.08;;;;;;;;;;4976595;28;20057;-78
2022/08/09 00:07:43;;;;;;;6.13;3.05;;;;;;;;;;4984834;28;20137;-78
2022/08/09 00:10:11;;;;;;;7.00;3.05;;;;;;;;;;5002063;28;20061;-78
2022/08/09 00:12:47;;;;;;;5.97;3.00;;;;;;;;;;5003243;28;20054;-79
2022/08/09 00:15:17;;;;;;;4.55;3.00;;;;;;;;;;5003458;28;20053;-80
2022/08/09 00:18:06;;;;;;;6.72;3.50;;;;;;;;;;4998454;28;20089;-79
2022/08/09 00:20:37;;;;;;;7.63;3.28;;;;;;;;;;4999904;28;20046;-78
2022/08/09 00:23:15;;;;;;;6.40;3.00;;;;;;;;;;5000671;28;20054;-79
2022/08/09 00:26:05;;;;;;;8.82;3.58;;;;;;;;;;5003144;28;20046;-78
2022/08/09 00:28:31;;;;;;;6.78;3.15;;;;;;;;;;5002839;28;20054;-79
2022/08/09 00:31:01;;;;;;;7.20;3.20;;;;;;;;;;5008009;28;20082;-79
2022/08/09 00:33:47;;;;;;;5.57;3.28;;;;;;;;;;5006487;28;20081;-79
2022/08/09 00:36:17;;;;;;;4.70;2.90;;;;;;;;;;5007159;28;20074;-79
2022/08/09 00:38:43;;;;;;;8.38;3.25;;;;;;;;;;5006189;28;20091;-79
2022/08/09 00:41:10;;;;;;;7.18;3.30;;;;;;;;;;5003066;28;20046;-79
2022/08/09 00:43:56;;;;;;;6.20;3.20;;;;;;;;;;4995064;28;20591;-79
2022/08/09 00:46:43;;;;;;;7.13;3.50;;;;;;;;;;5007557;28;20390;-79
2022/08/09 00:49:23;;;;;;;9.07;3.83;;;;;;;;;;5004282;28;20058;-80
2022/08/09 00:51:55;;;;;;;5.28;2.90;;;;;;;;;;5007187;28;20058;-79
2022/08/09 00:54:22;;;;;;;7.45;3.60;;;;;;;;;;5006636;28;20081;-79
2022/08/09 00:57:01;;;;;;;6.88;3.08;;;;;;;;;;5011880;28;20069;-79
2022/08/09 00:59:34;;;;;;;9.27;3.60;;;;;;;;;;5020618;28;20046;-79
2022/08/09 01:02:19;;;;;;;7.90;3.65;;;;;;;;;;5003399;28;20093;-79
2022/08/09 01:05:04;;;;;;;8.35;3.33;;;;;;;;;;4997675;28;20046;-79
2022/08/09 01:07:49;;;;;;;6.85;3.50;;;;;;;;;;5002565;28;20054;-80
2022/08/09 01:10:32;;;;;;;6.32;3.75;;;;;;;;;;5005620;28;20055;-79
2022/08/09 01:13:19;;;;;;;8.85;3.50;;;;;;;;;;5006619;28;20073;-80
2022/08/09 01:15:48;;;;;;;6.15;3.30;;;;;;;;;;5008632;28;20073;-80
2022/08/09 01:18:19;;;;;;;5.90;3.30;;;;;;;;;;5002252;28;20062;-80
2022/08/09 01:21:06;;;;;;;7.60;3.50;;;;;;;;;;5005847;28;20046;-80
2022/08/09 01:23:52;;;;;;;6.53;3.45;;;;;;;;;;5007249;28;20050;-79
2022/08/09 01:26:49;;;;;;;6.40;3.35;;;;;;;;;;5000207;28;20068;-79
2022/08/09 01:29:25;;;;;;;10.82;3.90;;;;;;;;;;5021283;28;20046;-78
2022/08/09 01:31:54;;;;;;;8.00;4.00;;;;;;;;;;5006174;28;20054;-79
2022/08/09 01:34:42;;;;;;;8.02;3.53;;;;;;;;;;5004392;28;20065;-78
2022/08/09 01:37:09;;;;;;;8.40;3.85;;;;;;;;;;5005363;28;20077;-77
2022/08/09 01:39:39;;;;;;;6.72;3.38;;;;;;;;;;5002919;28;20054;-79
2022/08/09 01:42:08;;;;;;;7.18;3.83;;;;;;;;;;5004171;28;20066;-79
2022/08/09 01:44:37;;;;;;;6.25;3.30;;;;;;;;;;5005848;28;20047;-78
2022/08/09 01:47:04;;;;;;;6.03;3.88;;;;;;;;;;5006333;28;20047;-79
2022/08/09 01:49:37;;;;;;;5.50;3.50;;;;;;;;;;5005798;28;20081;-79
2022/08/09 01:52:07;;;;;;;5.10;3.38;;;;;;;;;;5004943;28;20042;-79
2022/08/09 01:54:37;;;;;;;5.43;3.50;;;;;;;;;;5006227;28;20050;-80
2022/08/09 01:57:27;;;;;;;7.10;3.83;;;;;;;;;;5005999;28;20149;-79
2022/08/09 01:59:57;;;;;;;7.63;4.10;;;;;;;;;;4999738;28;20061;-80
2022/08/09 02:02:35;;;;;;;7.53;3.65;;;;;;;;;;4990359;28;20070;-79
2022/08/09 02:05:07;;;;;;;6.95;3.28;;;;;;;;;;5005663;28;20050;-78
2022/08/09 02:07:52;;;;;;;6.45;3.65;;;;;;;;;;4999167;28;20053;-77
2022/08/09 02:10:40;;;;;;;10.35;3.97;;;;;;;;;;5003288;28;20106;-78
2022/08/09 02:13:11;;;;;;;8.25;3.53;;;;;;;;;;4997223;28;20060;-79
2022/08/09 02:15:39;;;;;;;7.55;3.88;;;;;;;;;;4986149;28;20130;-80
2022/08/09 02:18:17;;;;;;;12.60;4.15;;;;;;;;;;5009394;28;20050;-80
2022/08/09 02:20:45;;;;;;;5.55;3.50;;;;;;;;;;5009112;28;20062;-79
2022/08/09 02:23:11;;;;;;;7.15;3.72;;;;;;;;;;5010101;28;20078;-79
2022/08/09 02:25:43;;;;;;;5.07;3.42;;;;;;;;;;5007395;28;20061;-79
2022/08/09 02:28:20;;;;;;;7.80;3.50;;;;;;;;;;5008007;28;20050;-79
2022/08/09 02:30:51;;;;;;;6.53;3.63;;;;;;;;;;5008367;28;20042;-78
2022/08/09 02:33:19;;;;;;;5.30;3.38;;;;;;;;;;5006052;28;20088;-79
2022/08/09 02:36:04;;;;;;;7.97;3.38;;;;;;;;;;4991209;28;20050;-79
2022/08/09 02:38:41;;;;;;;8.88;3.63;;;;;;;;;;5008136;28;20050;-79
2022/08/09 02:41:16;;;;;;;5.05;3.80;;;;;;;;;;5006848;28;20430;-79
2022/08/09 02:43:44;;;;;;;7.90;3.70;;;;;;;;;;5008055;28;20061;-79
2022/08/09 02:46:21;;;;;;;6.28;3.63;;;;;;;;;;5001368;28;20093;-80
2022/08/09 02:48:50;;;;;;;9.20;4.32;;;;;;;;;;4988318;28;20105;-79
2022/08/09 02:51:19;;;;;;;11.40;3.95;;;;;;;;;;4986367;28;20062;-79
2022/08/09 02:53:48;;;;;;;9.60;4.28;;;;;;;;;;4997403;28;20042;-79
2022/08/09 02:56:26;;;;;;;5.60;3.70;;;;;;;;;;5006581;28;20047;-79
2022/08/09 02:58:54;;;;;;;8.18;3.60;;;;;;;;;;4994291;28;20055;-79
2022/08/09 03:01:21;;;;;;;8.90;4.15;;;;;;;;;;4986663;28;20436;-80
2022/08/09 03:04:07;;;;;;;8.70;3.83;;;;;;;;;;4987603;28;20196;-79
2022/08/09 03:06:46;;;;;;;8.55;4.32;;;;;;;;;;4987752;28;20507;-79
2022/08/09 03:09:15;;;;;;;8.80;4.57;;;;;;;;;;4980673;28;20055;-79
2022/08/09 03:11:42;;;;;;;7.35;4.18;;;;;;;;;;4985525;28;20051;-80
2022/08/09 03:14:30;;;;;;;9.13;4.15;;;;;;;;;;4987761;28;20074;-80
2022/08/09 03:16:58;;;;;;;9.50;4.57;;;;;;;;;;4987811;28;20054;-79
2022/08/09 03:19:28;;;;;;;8.52;3.72;;;;;;;;;;4988367;28;20058;-79
2022/08/09 03:22:14;;;;;;;9.63;4.20;;;;;;;;;;4989547;28;20161;-80
2022/08/09 03:24:55;;;;;;;10.30;4.75;;;;;;;;;;5006921;28;20085;-80
2022/08/09 03:27:43;;;;;;;8.43;4.15;;;;;;;;;;5007728;28;20130;-80
2022/08/09 03:30:12;;;;;;;8.18;4.35;;;;;;;;;;5007307;28;20050;-79
2022/08/09 03:32:39;;;;;;;9.10;4.63;;;;;;;;;;4990912;28;20042;-78
2022/08/09 03:35:11;;;;;;;9.13;4.70;;;;;;;;;;5001184;28;20050;-80
2022/08/09 03:37:50;;;;;;;6.43;3.88;;;;;;;;;;4997235;28;20537;-80
2022/08/09 03:40:23;;;;;;;8.32;3.80;;;;;;;;;;5004209;28;20058;-78
2022/08/09 03:42:50;;;;;;;12.05;4.43;;;;;;;;;;4999632;28;20050;-80
2022/08/09 03:45:16;;;;;;;7.28;3.67;;;;;;;;;;5006465;28;20038;-80
2022/08/09 03:48:04;;;;;;;8.65;3.90;;;;;;;;;;5009244;28;20038;-79
2022/08/09 03:50:31;;;;;;;5.95;3.88;;;;;;;;;;5009791;28;20051;-78
2022/08/09 03:52:59;;;;;;;6.97;4.13;;;;;;;;;;5009277;28;20049;-79
2022/08/09 03:55:28;;;;;;;7.13;4.00;;;;;;;;;;5001003;28;20046;-78
2022/08/09 03:58:01;;;;;;;9.38;4.80;;;;;;;;;;5002613;28;20397;-79
2022/08/09 04:00:42;;;;;;;12.75;4.40;;;;;;;;;;4997700;28;20054;-76
2022/08/09 04:03:10;;;;;;;7.00;4.47;;;;;;;;;;4999981;28;20054;-79
2022/08/09 04:05:45;;;;;;;9.98;4.93;;;;;;;;;;5006773;28;20065;-78
2022/08/09 04:08:11;;;;;;;8.07;4.90;;;;;;;;;;4985788;28;20047;-77
2022/08/09 04:10:38;;;;;;;9.73;4.38;;;;;;;;;;5006053;28;20150;-78
2022/08/09 04:13:08;;;;;;;8.85;4.25;;;;;;;;;;5012491;28;20443;-78
2022/08/09 04:15:37;;;;;;;6.95;4.43;;;;;;;;;;5012482;28;20057;-78
2022/08/09 04:18:24;;;;;;;6.85;4.10;;;;;;;;;;4996710;28;20435;-77
2022/08/09 04:20:50;;;;;;;6.03;3.65;;;;;;;;;;4988304;28;20054;-77
2022/08/09 04:23:17;;;;;;;7.75;4.25;;;;;;;;;;4988889;28;20081;-78
2022/08/09 04:25:50;;;;;;;8.13;4.18;;;;;;;;;;4972292;28;20165;-77
2022/08/09 04:28:20;;;;;;;12.35;5.20;;;;;;;;;;4991065;28;20082;-77
2022/08/09 04:30:59;;;;;;;9.88;4.85;;;;;;;;;;4993500;28;20411;-78
2022/08/09 04:33:33;;;;;;;7.93;4.53;;;;;;;;;;4989370;28;20440;-78
2022/08/09 04:36:18;;;;;;;7.13;4.70;;;;;;;;;;4990028;28;20046;-75
2022/08/09 04:38:45;;;;;;;12.73;4.53;;;;;;;;;;4989601;28;20093;-75
2022/08/09 04:41:12;;;;;;;9.27;4.85;;;;;;;;;;4989557;28;20056;-78
2022/08/09 04:43:39;;;;;;;9.65;5.07;;;;;;;;;;4989849;28;20050;-77
2022/08/09 04:46:25;;;;;;;7.38;4.60;;;;;;;;;;4989523;28;20046;-77
2022/08/09 04:49:11;;;;;;;12.82;4.82;;;;;;;;;;4987926;28;20054;-77
2022/08/09 04:51:40;;;;;;;8.77;4.80;;;;;;;;;;4972510;28;20073;-77
2022/08/09 04:54:06;;;;;;;7.15;4.50;;;;;;;;;;4980449;28;20109;-77
2022/08/09 04:56:33;;;;;;;11.30;4.50;;;;;;;;;;4989048;28;20046;-77
2022/08/09 04:59:00;;;;;;;7.03;4.22;;;;;;;;;;4993276;28;20042;-76
2022/08/09 05:01:32;;;;;;;7.68;4.75;;;;;;;;;;5000462;28;20058;-78
2022/08/09 05:04:02;;;;;;;9.02;4.53;;;;;;;;;;4983315;28;20065;-79
2022/08/09 05:06:29;;;;;;;8.57;4.10;;;;;;;;;;4978646;28;20100;-78
2022/08/09 05:09:03;;;;;;;8.15;4.25;;;;;;;;;;4994746;28;20050;-78
2022/08/09 05:11:33;;;;;;;8.27;3.60;;;;;;;;;;4995127;28;20046;-77
2022/08/09 05:14:04;;;;;;;5.85;3.65;;;;;;;;;;4995383;28;20046;-78
2022/08/09 05:16:32;;;;;;;6.93;3.67;;;;;;;;;;4979539;28;20125;-78
2022/08/09 05:19:08;;;;;;;6.75;3.42;;;;;;;;;;4993776;28;20050;-78
2022/08/09 05:21:37;;;;;;;7.07;3.67;;;;;;;;;;4994497;28;20050;-78
2022/08/09 05:24:20;;;;;;;9.57;3.90;;;;;;;;;;4994186;28;20137;-76
2022/08/09 05:26:49;;;;;;;7.40;3.67;;;;;;;;;;4993786;28;20050;-77
2022/08/09 05:29:18;;;;;;;11.15;4.68;;;;;;;;;;4992367;28;20543;-77
2022/08/09 05:31:48;;;;;;;9.93;4.72;;;;;;;;;;4997332;28;20077;-78
2022/08/09 05:34:23;;;;;;;10.00;4.57;;;;;;;;;;5001604;28;20062;-78
2022/08/09 05:36:57;;;;;;;12.88;4.00;;;;;;;;;;5004190;28;20046;-79
2022/08/09 05:39:26;;;;;;;10.93;4.00;;;;;;;;;;5002564;28;20042;-78
2022/08/09 05:42:00;;;;;;;21.30;3.67;;;;;;;;;;5000228;28;20308;-78
2022/08/09 05:44:31;;;;;;;17.77;3.60;;;;;;;;;;4994645;28;20483;-77
2022/08/09 05:47:01;;;;;;;14.95;2.90;;;;;;;;;;4994433;28;20574;-77
2022/08/09 05:49:31;;;;;;;12.35;4.05;;;;;;;;;;4993504;28;20101;-78
2022/08/09 05:52:17;;;;;;;14.48;3.38;;;;;;;;;;4993774;28;20062;-76
2022/08/09 05:54:44;;;;;;;9.63;2.95;;;;;;;;;;4985589;28;20108;-78
2022/08/09 05:57:14;;;;;;;13.80;2.70;;;;;;;;;;4994186;28;20327;-78
2022/08/09 05:59:44;;;;;;;16.52;3.05;;;;;;;;;;4995119;28;20046;-78
2022/08/09 06:02:10;;;;;;;12.48;3.03;;;;;;;;;;4993721;28;20046;-78
2022/08/09 06:04:42;;;;;;;12.18;3.15;;;;;;;;;;4993472;28;20067;-78
2022/08/09 06:07:11;;;;;;;11.02;2.80;;;;;;;;;;4993636;28;20138;-78
2022/08/09 06:09:47;;;;;;;10.43;2.80;;;;;;;;;;4993660;28;20108;-78
2022/08/09 06:12:27;;;;;;;16.67;2.90;;;;;;;;;;4992909;28;20057;-79
2022/08/09 06:14:53;;;;;;;10.43;2.70;;;;;;;;;;4994177;28;20065;-78
2022/08/09 06:17:19;;;;;;;15.40;2.97;;;;;;;;;;4993589;28;20074;-79
2022/08/09 06:19:46;;;;;;;8.57;2.80;;;;;;;;;;4976102;28;20074;-79
2022/08/09 06:22:14;;;;;;;9.32;2.50;;;;;;;;;;4994286;28;20046;-78
2022/08/09 06:24:40;;;;;;;16.02;2.88;;;;;;;;;;4993982;28;20057;-78
2022/08/09 06:27:07;;;;;;;11.20;2.63;;;;;;;;;;4994752;28;20157;-78
2022/08/09 06:29:34;;;;;;;12.20;2.53;;;;;;;;;;4996038;28;20417;-79
2022/08/09 06:32:20;;;;;;;13.23;2.50;;;;;;;;;;4974862;28;20467;-79
2022/08/09 06:35:07;;;;;;;20.83;2.30;;;;;;;;;;4976155;28;20426;-79
2022/08/09 06:37:33;;;;;;;15.73;2.22;;;;;;;;;;4977595;28;20142;-78
2022/08/09 06:40:20;;;;;;;13.52;2.30;;;;;;;;;;4977726;28;20046;-78
2022/08/09 06:42:49;;;;;;;11.50;2.30;;;;;;;;;;4975616;28;20057;-79
2022/08/09 06:45:16;;;;;;;16.30;2.65;;;;;;;;;;4980364;28;20047;-78
2022/08/09 06:48:02;;;;;;;14.60;2.05;;;;;;;;;;4978521;28;20146;-79
2022/08/09 06:50:30;;;;;;;8.10;1.90;;;;;;;;;;4985218;28;20101;-78
2022/08/09 06:52:59;;;;;;;10.38;2.05;;;;;;;;;;4994750;28;20050;-79
2022/08/09 06:55:30;;;;;;;15.25;2.22;;;;;;;;;;5003402;28;20053;-78
2022/08/09 06:58:00;;;;;;;9.60;1.70;;;;;;;;;;5007893;28;20051;-78
2022/08/09 07:00:30;;;;;;;3.53;1.45;;;;;;;;;;4999822;28;20069;-78
2022/08/09 07:03:17;;;;;;;4.50;1.70;;;;;;;;;;4995110;28;20056;-78
2022/08/09 07:05:43;;;;;;;11.73;2.05;;;;;;;;;;4996590;28;20061;-79
2022/08/09 07:08:29;;;;;;;5.82;1.58;;;;;;;;;;4998138;28;20054;-78
2022/08/09 07:10:56;;;;;;;5.63;1.58;;;;;;;;;;4995168;28;20150;-78
2022/08/09 07:13:24;;;;;;;8.98;1.70;;;;;;;;;;4996124;28;20198;-78
2022/08/09 07:15:54;;;;;;;4.65;1.83;;;;;;;;;;4997348;28;20193;-78
2022/08/09 07:18:41;;;;;;;4.78;1.60;;;;;;;;;;4982264;28;20068;-78
2022/08/09 07:21:08;;;;;;;5.05;1.95;;;;;;;;;;4979351;28;20058;-78
2022/08/09 07:23:35;;;;;;;8.35;1.52;;;;;;;;;;4996561;28;20050;-78
2022/08/09 07:26:21;;;;;;;7.07;1.83;;;;;;;;;;4997134;28;20635;-79
2022/08/09 07:28:48;;;;;;;6.90;1.60;;;;;;;;;;4995060;28;20086;-78
2022/08/09 07:31:34;;;;;;;3.30;1.58;;;;;;;;;;4998320;28;20050;-78
2022/08/09 07:34:03;;;;;;;7.75;2.15;;;;;;;;;;5003990;28;20079;-77
2022/08/09 07:36:31;;;;;;;5.88;1.67;;;;;;;;;;4988660;28;20046;-78
2022/08/09 07:38:58;;;;;;;6.18;1.63;;;;;;;;;;4994914;28;20081;-78
2022/08/09 07:41:27;;;;;;;7.00;1.75;;;;;;;;;;4992963;28;20055;-78
2022/08/09 07:44:03;;;;;;;6.68;1.50;;;;;;;;;;4994721;28;20197;-78
2022/08/09 07:46:30;;;;;;;3.17;1.45;;;;;;;;;;4993021;28;20077;-78
2022/08/09 07:48:56;;;;;;;5.00;1.52;;;;;;;;;;4995077;28;20149;-78
2022/08/09 07:51:25;;;;;;;3.50;1.40;;;;;;;;;;5013573;28;20058;-78
2022/08/09 07:54:12;;;;;;;4.25;1.60;;;;;;;;;;4982455;28;20064;-78
2022/08/09 07:56:42;;;;;;;5.70;1.23;;;;;;;;;;4991683;28;20062;-78
2022/08/09 07:59:14;;;;;;;5.13;1.52;;;;;;;;;;4992503;28;20057;-78
2022/08/09 08:02:01;;;;;;;2.97;1.33;;;;;;;;;;4991595;28;20053;-79
2022/08/09 08:04:27;;;;;;;3.67;1.40;;;;;;;;;;4991895;28;20092;-78
2022/08/09 08:06:59;;;;;;;5.80;1.50;;;;;;;;;;4994383;28;20042;-77
2022/08/09 08:09:46;;;;;;;4.47;1.65;;;;;;;;;;4995748;28;20396;-78
2022/08/09 08:12:20;;;;;;;4.05;1.40;;;;;;;;;;4994316;28;20093;-78
2022/08/09 08:14:54;;;;;;;4.45;1.30;;;;;;;;;;4995579;28;20043;-79
2022/08/09 08:17:22;;;;;;;3.50;1.42;;;;;;;;;;4995257;28;20462;-79
2022/08/09 08:20:09;;;;;;;3.42;1.20;;;;;;;;;;4993182;28;20339;-78
2022/08/09 08:22:38;;;;;;;3.47;1.40;;;;;;;;;;4992522;28;20054;-78
2022/08/09 08:25:05;;;;;;;5.03;1.25;;;;;;;;;;4994756;28;20054;-79
2022/08/09 08:27:39;;;;;;;10.30;1.35;;;;;;;;;;4994550;28;20106;-78
2022/08/09 08:30:08;;;;;;;3.20;1.30;;;;;;;;;;4993973;28;20065;-78
2022/08/09 08:32:36;;;;;;;6.72;1.40;;;;;;;;;;4994076;28;20589;-79
2022/08/09 08:35:19;;;;;;;5.10;1.40;;;;;;;;;;4996545;28;20053;-78
2022/08/09 08:37:48;;;;;;;6.13;1.33;;;;;;;;;;4995781;28;20046;-79
2022/08/09 08:40:30;;;;;;;4.55;1.45;;;;;;;;;;4995025;28;20261;-78
2022/08/09 08:42:57;;;;;;;3.65;1.50;;;;;;;;;;4992787;28;20050;-79
2022/08/09 08:45:37;;;;;;;7.22;1.27;;;;;;;;;;4995306;28;20046;-79
2022/08/09 08:48:16;;;;;;;2.33;1.35;;;;;;;;;;4996450;28;20054;-79
2022/08/09 08:50:45;;;;;;;7.22;1.48;;;;;;;;;;4993908;28;20069;-78
2022/08/09 08:53:17;;;;;;;3.05;1.17;;;;;;;;;;4993537;28;20055;-78
2022/08/09 08:55:47;;;;;;;4.28;1.40;;;;;;;;;;4990996;28;20165;-78
2022/08/09 08:58:18;;;;;;;3.40;1.25;;;;;;;;;;4997383;28;20304;-79
2022/08/09 09:00:52;;;;;;;3.67;1.35;;;;;;;;;;4997489;28;20054;-78
2022/08/09 09:03:23;;;;;;;4.47;1.50;;;;;;;;;;4996300;28;20050;-78
2022/08/09 09:06:04;;;;;;;5.60;1.38;;;;;;;;;;4996362;28;20061;-79
2022/08/09 09:08:32;;;;;;;7.68;1.55;;;;;;;;;;4994710;28;20057;-78
2022/08/09 09:11:06;;;;;;;9.02;1.85;;;;;;;;;;5000250;28;20054;-78
2022/08/09 09:13:37;;;;;;;7.00;1.60;;;;;;;;;;5002067;28;20448;-78
2022/08/09 09:16:21;;;;;;;8.52;1.40;;;;;;;;;;5003625;28;20074;-79
2022/08/09 09:18:56;;;;;;;;;;;;;;;;;;5002130;28;20050;-79
2022/08/09 09:21:56;;;;;;;9.68;1.65;;;;;;;;;;5004731;28;19922;-79
2022/08/09 09:24:31;;;;;;;9.00;1.67;;;;;;;;;;5002802;28;20046;-79
2022/08/09 09:27:00;;;;;;;4.57;1.60;;;;;;;;;;4999261;28;20069;-77
2022/08/09 09:29:32;;;;;;;8.35;1.48;;;;;;;;;;5004140;28;20442;-79
2022/08/09 09:32:26;;;;;;;6.95;1.63;;;;;;;;;;4980414;28;20501;-78
2022/08/09 09:35:10;;;;;;;8.02;1.88;;;;;;;;;;4981173;28;20046;-79
2022/08/09 09:37:44;;;;;;;3.15;1.40;;;;;;;;;;4983480;28;20070;-79
2022/08/09 09:40:10;;;;;;;8.20;1.70;;;;;;;;;;4984215;28;20046;-79
2022/08/09 09:42:38;;;;;;;4.50;1.63;;;;;;;;;;4982982;28;20054;-79
2022/08/09 09:45:08;;;;;;;6.55;1.67;;;;;;;;;;4983679;28;20051;-79
2022/08/09 09:47:44;;;;;;;6.00;1.83;;;;;;;;;;4979693;28;20054;-78
2022/08/09 09:50:40;;;;;;;5.00;1.60;;;;;;;;;;4978278;28;20047;-78
2022/08/09 09:53:19;;;;;;;5.22;2.65;;;;;;;;;;4983781;28;20610;-78
2022/08/09 09:55:53;;;;;;;5.57;3.50;;;;;;;;;;4993166;28;20042;-78
2022/08/09 09:58:44;;;;;;;5.88;1.98;;;;;;;;;;4999038;28;20100;-77
2022/08/09 10:01:18;;;;;;;3.53;2.03;;;;;;;;;;4996834;28;20054;-79
2022/08/09 10:04:11;;;;;;;5.57;1.98;;;;;;;;;;4995823;28;20051;-78
2022/08/09 10:06:42;;;;;;;6.75;1.63;;;;;;;;;;4998773;28;20050;-78
2022/08/09 10:09:19;;;;;;;4.13;1.60;;;;;;;;;;5012047;28;20066;-80
2022/08/09 10:11:58;;;;;;;8.02;2.60;;;;;;;;;;5015399;28;20065;-79
2022/08/09 10:14:44;;;;;;;3.00;1.60;;;;;;;;;;5011905;28;20088;-79
2022/08/09 10:17:14;;;;;;;5.50;1.60;;;;;;;;;;5001518;28;20089;-77
2022/08/09 10:20:02;;;;;;;7.78;1.80;;;;;;;;;;4994645;28;20134;-78
2022/08/09 10:22:33;;;;;;;4.68;1.80;;;;;;;;;;4994069;28;20156;-77
2022/08/09 10:25:05;;;;;;;3.92;1.70;;;;;;;;;;4996432;28;20448;-78
2022/08/09 10:27:39;;;;;;;5.10;1.60;;;;;;;;;;4998615;28;20053;-78
2022/08/09 10:30:23;;;;;;;7.57;1.58;;;;;;;;;;4997891;28;20054;-79
2022/08/09 10:33:09;;;;;;;5.72;1.63;;;;;;;;;;4984676;28;20042;-78
2022/08/09 10:35:56;;;;;;;6.05;1.83;;;;;;;;;;4992778;28;20050;-78
2022/08/09 10:38:27;;;;;;;4.95;1.67;;;;;;;;;;4991633;28;20061;-78
2022/08/09 10:41:14;;;;;;;2.50;1.50;;;;;;;;;;4992324;28;20047;-78
2022/08/09 10:43:44;;;;;;;4.30;1.40;;;;;;;;;;4992172;28;20058;-78
2022/08/09 10:46:43;;;;;;;2.10;1.40;;;;;;;;;;4993099;28;20050;-78
2022/08/09 10:49:44;;;;;;;5.45;1.60;;;;;;;;;;4990967;28;20097;-77
2022/08/09 10:52:37;;;;;;;3.70;1.70;;;;;;;;;;4994834;28;20410;-78
2022/08/09 10:55:19;;;;;;;3.15;1.40;;;;;;;;;;4991223;28;20034;-79
2022/08/09 10:57:48;;;;;;;6.82;1.45;;;;;;;;;;5015764;28;20046;-78
2022/08/09 11:00:32;;;;;;;4.57;1.60;;;;;;;;;;4995736;28;20050;-79
2022/08/09 11:03:00;;;;;;;4.43;1.50;;;;;;;;;;5000698;28;20050;-78
2022/08/09 11:06:06;;;;;;;3.78;1.45;;;;;;;;;;4999447;28;20062;-79
2022/08/09 11:08:41;;;;;;;6.63;1.63;;;;;;;;;;4998721;28;20053;-78
2022/08/09 11:11:13;;;;;;;2.85;1.60;;;;;;;;;;4981655;28;20055;-78
2022/08/09 11:13:39;;;;;;;4.00;1.63;;;;;;;;;;4997820;28;20511;-78
2022/08/09 11:16:32;;;;;;;3.97;1.80;;;;;;;;;;4984390;28;20054;-78
2022/08/09 11:19:02;;;;;;;3.65;1.50;;;;;;;;;;4996054;28;20077;-78
2022/08/09 11:21:48;;;;;;;3.67;1.60;;;;;;;;;;4996835;28;20065;-79
2022/08/09 11:24:53;;;;;;;3.30;1.63;;;;;;;;;;4997064;28;20064;-78
2022/08/09 11:27:37;;;;;;;4.60;1.50;;;;;;;;;;4996388;28;20055;-79
2022/08/09 11:30:26;;;;;;;7.72;1.58;;;;;;;;;;4998927;28;20129;-78
2022/08/09 11:32:59;;;;;;;6.43;1.65;;;;;;;;;;4998107;28;20517;-78
2022/08/09 11:35:44;;;;;;;3.08;1.42;;;;;;;;;;4998515;28;20046;-78
2022/08/09 11:38:17;;;;;;;4.20;1.60;;;;;;;;;;5003145;28;20054;-79
2022/08/09 11:40:43;;;;;;;6.38;1.67;;;;;;;;;;5004254;28;20100;-79
2022/08/09 11:43:13;;;;;;;5.85;1.45;;;;;;;;;;5001865;28;20396;-78
2022/08/09 11:45:52;;;;;;;2.72;1.55;;;;;;;;;;5001479;28;20082;-79
2022/08/09 11:48:20;;;;;;;4.07;1.50;;;;;;;;;;5001911;28;20073;-79
2022/08/09 11:51:01;;;;;;;5.05;1.45;;;;;;;;;;4998253;28;20078;-78
2022/08/09 11:53:48;;;;;;;4.47;1.52;;;;;;;;;;4993064;28;20062;-77
2022/08/09 11:56:27;;;;;;;6.03;1.50;;;;;;;;;;4990588;28;20408;-78
2022/08/09 11:59:23;;;;;;;6.45;1.35;;;;;;;;;;4990251;28;20054;-78
2022/08/09 12:01:56;;;;;;;1.50;1.33;;;;;;;;;;4989877;28;20054;-78
2022/08/09 12:04:42;;;;;;;8.30;1.75;;;;;;;;;;4990365;28;20404;-78
2022/08/09 12:07:09;;;;;;;7.10;1.90;;;;;;;;;;4991013;28;20064;-79
2022/08/09 12:09:42;;;;;;;3.08;1.55;;;;;;;;;;4989841;28;20126;-78
2022/08/09 12:12:17;;;;;;;6.07;1.65;;;;;;;;;;4989547;28;20046;-77
2022/08/09 12:14:54;;;;;;;2.55;1.50;;;;;;;;;;4991770;28;20051;-78
2022/08/09 12:17:35;;;;;;;6.35;1.60;;;;;;;;;;4993257;28;20125;-79
2022/08/09 12:20:21;;;;;;;7.20;1.58;;;;;;;;;;4994624;28;20129;-78
2022/08/09 12:22:53;;;;;;;6.97;1.73;;;;;;;;;;4993232;28;20054;-78
2022/08/09 12:25:22;;;;;;;9.93;1.85;;;;;;;;;;4996552;28;20085;-78
2022/08/09 12:28:13;;;;;;;4.55;1.50;;;;;;;;;;4993731;28;20067;-78
2022/08/09 12:31:00;;;;;;;5.28;1.38;;;;;;;;;;4997827;28;20050;-77
2022/08/09 12:33:27;;;;;;;4.78;1.55;;;;;;;;;;5011772;28;20046;-79
2022/08/09 12:36:13;;;;;;;5.97;1.73;;;;;;;;;;5000277;28;20053;-78
2022/08/09 12:38:58;;;;;;;10.63;1.70;;;;;;;;;;4995903;28;20054;-79
2022/08/09 12:41:26;;;;;;;4.03;1.70;;;;;;;;;;4995187;28;20495;-79
2022/08/09 12:43:54;;;;;;;5.82;1.70;;;;;;;;;;5000552;28;20546;-78
2022/08/09 12:46:33;;;;;;;3.65;1.40;;;;;;;;;;4998423;28;20507;-79
2022/08/09 12:49:02;;;;;;;6.10;1.50;;;;;;;;;;4995569;28;20043;-79
2022/08/09 12:51:28;;;;;;;5.00;1.60;;;;;;;;;;4994850;28;20128;-78
2022/08/09 12:54:14;;;;;;;4.88;1.63;;;;;;;;;;4983614;28;20054;-78
2022/08/09 12:56:46;;;;;;;6.78;1.80;;;;;;;;;;4985892;28;20395;-77
2022/08/09 12:59:20;;;;;;;3.63;1.30;;;;;;;;;;4992497;28;20101;-78
2022/08/09 13:01:59;;;;;;;5.93;1.80;;;;;;;;;;4994932;28;20046;-79
2022/08/09 13:04:26;;;;;;;5.00;1.60;;;;;;;;;;4991623;28;20054;-78
2022/08/09 13:07:10;;;;;;;2.35;1.60;;;;;;;;;;4989081;28;20133;-78
2022/08/09 13:09:39;;;;;;;2.50;1.48;;;;;;;;;;4994797;28;20249;-79
2022/08/09 13:12:11;;;;;;;4.22;1.65;;;;;;;;;;4996140;28;20042;-77
2022/08/09 13:14:37;;;;;;;3.70;1.58;;;;;;;;;;4993192;28;20151;-79
2022/08/09 13:17:14;;;;;;;3.30;1.60;;;;;;;;;;4994761;28;20077;-77
2022/08/09 13:20:05;;;;;;;5.30;1.60;;;;;;;;;;4992115;28;20043;-79
2022/08/09 13:22:49;;;;;;;5.03;1.70;;;;;;;;;;4998647;28;20589;-79
2022/08/09 13:25:36;;;;;;;5.07;1.63;;;;;;;;;;4999173;28;20545;-80
2022/08/09 13:28:08;;;;;;;3.72;1.60;;;;;;;;;;4999557;28;20042;-79
2022/08/09 13:30:35;;;;;;;3.33;1.60;;;;;;;;;;4998051;28;20061;-79
2022/08/09 13:33:22;;;;;;;6.80;1.70;;;;;;;;;;4992485;28;20070;-78
2022/08/09 13:35:49;;;;;;;8.57;1.58;;;;;;;;;;4995602;28;20043;-78
2022/08/09 13:38:35;;;;;;;4.35;1.40;;;;;;;;;;4991868;28;20110;-78
2022/08/09 13:41:22;;;;;;;5.32;1.48;;;;;;;;;;4986955;28;20058;-79
2022/08/09 13:44:10;;;;;;;3.15;1.40;;;;;;;;;;4992846;28;20050;-79
2022/08/09 13:46:42;;;;;;;4.13;1.50;;;;;;;;;;4992958;28;20074;-79
2022/08/09 13:49:28;;;;;;;3.08;1.48;;;;;;;;;;4988135;28;20061;-78
2022/08/09 13:52:05;;;;;;;9.45;1.60;;;;;;;;;;4988355;28;20149;-78
2022/08/09 13:54:34;;;;;;;3.67;1.60;;;;;;;;;;4983514;28;20077;-78
2022/08/09 13:57:08;;;;;;;5.95;1.58;;;;;;;;;;4987296;28;20046;-78
2022/08/09 13:59:39;;;;;;;6.10;1.55;;;;;;;;;;4994207;28;20496;-78
2022/08/09 14:02:07;;;;;;;3.05;1.65;;;;;;;;;;4990952;28;20042;-79
2022/08/09 14:04:35;;;;;;;6.75;1.50;;;;;;;;;;4993429;28;20042;-79
2022/08/09 14:07:02;;;;;;;6.25;1.38;;;;;;;;;;4996544;28;20088;-78
2022/08/09 14:09:29;;;;;;;9.55;1.50;;;;;;;;;;4995242;28;20045;-78
2022/08/09 14:12:00;;;;;;;2.42;1.40;;;;;;;;;;4997771;28;20073;-79
2022/08/09 14:14:32;;;;;;;3.30;1.60;;;;;;;;;;5010780;28;20042;-79
2022/08/09 14:17:00;;;;;;;3.72;1.20;;;;;;;;;;5013809;28;20053;-78
2022/08/09 14:19:26;;;;;;;4.05;1.30;;;;;;;;;;5007064;28;20054;-79
2022/08/09 14:21:58;;;;;;;4.97;1.45;;;;;;;;;;4993946;28;20054;-78
2022/08/09 14:24:28;;;;;;;3.72;1.42;;;;;;;;;;4992811;28;20060;-78
2022/08/09 14:26:59;;;;;;;5.65;2.00;;;;;;;;;;4993178;28;20150;-78
2022/08/09 14:29:27;;;;;;;3.47;1.60;;;;;;;;;;4993065;28;20503;-78
2022/08/09 14:32:13;;;;;;;5.43;1.70;;;;;;;;;;4992582;28;20058;-78
2022/08/09 14:34:54;;;;;;;4.78;1.60;;;;;;;;;;4992290;28;20331;-78
2022/08/09 14:37:22;;;;;;;10.38;1.80;;;;;;;;;;4992233;28;20545;-78
2022/08/09 14:39:53;;;;;;;4.68;1.60;;;;;;;;;;4992113;28;20108;-78
2022/08/09 14:42:22;;;;;;;7.63;1.63;;;;;;;;;;4993968;28;20181;-79
2022/08/09 14:45:08;;;;;;;4.13;1.50;;;;;;;;;;4995619;28;20077;-79
2022/08/09 14:47:57;;;;;;;4.75;1.40;;;;;;;;;;5000191;28;20160;-78
2022/08/09 14:50:28;;;;;;;10.88;1.48;;;;;;;;;;5003420;28;20054;-79
2022/08/09 14:52:56;;;;;;;2.15;1.30;;;;;;;;;;5004626;28;20050;-78
2022/08/09 14:55:23;;;;;;;8.32;1.63;;;;;;;;;;4997800;28;20054;-79
2022/08/09 14:57:50;;;;;;;2.90;1.60;;;;;;;;;;5012682;28;20046;-79
2022/08/09 15:00:16;;;;;;;5.57;1.80;;;;;;;;;;5009502;28;20058;-79
2022/08/09 15:02:43;;;;;;;10.90;1.60;;;;;;;;;;4987561;28;20054;-79
2022/08/09 15:05:13;;;;;;;4.97;1.50;;;;;;;;;;5001626;28;20050;-79
2022/08/09 15:07:42;;;;;;;2.20;1.60;;;;;;;;;;5000543;28;20440;-79
2022/08/09 15:10:10;;;;;;;11.23;1.60;;;;;;;;;;5000421;28;20081;-79
2022/08/09 15:12:40;;;;;;;7.97;1.55;;;;;;;;;;4995201;28;20068;-79
2022/08/09 15:15:10;;;;;;;5.78;1.55;;;;;;;;;;4996197;28;20193;-78
2022/08/09 15:17:38;;;;;;;9.52;1.70;;;;;;;;;;4999969;28;20085;-79
2022/08/09 15:20:11;;;;;;;8.55;1.52;;;;;;;;;;5001569;28;20345;-79
2022/08/09 15:22:40;;;;;;;3.17;1.50;;;;;;;;;;4997649;28;20159;-79
2022/08/09 15:25:12;;;;;;;9.63;1.80;;;;;;;;;;4999465;28;20054;-79
2022/08/09 15:27:40;;;;;;;9.52;1.58;;;;;;;;;;4997124;28;20050;-78